sensor_id;sensor_type;location;lat;lon;timestamp;P1;durP1;ratioP1;P2;durP2;ratioP2
65533;SDS011;53640;55.838;37.184;2024-03-22T00:00:22;14.73;;;6.18;;
65533;SDS011;53640;55.838;37.184;2024-03-22T00:02:48;9.18;;;5.28;;
65533;SDS011;53640;55.838;37.184;2024-03-22T00:05:14;10.40;;;5.68;;
65533;SDS011;53640;55.838;37.184;2024-03-22T00:07:42;8.43;;;5.00;;
65533;SDS011;53640;55.838;37.184;2024-03-22T00:10:08;11.82;;;5.68;;
65533;SDS011;53640;55.838;37.184;2024-03-22T00:12:35;9.55;;;5.70;;
65533;SDS011;53640;55.838;37.184;2024-03-22T00:15:01;9.95;;;5.00;;
65533;SDS011;53640;55.838;37.184;2024-03-22T00:17:28;11.25;;;5.53;;
65533;SDS011;53640;55.838;37.184;2024-03-22T00:19:56;9.05;;;5.00;;
65533;SDS011;53640;55.838;37.184;2024-03-22T00:22:23;10.50;;;5.97;;
65533;SDS011;53640;55.838;37.184;2024-03-22T00:24:49;12.40;;;6.63;;
65533;SDS011;53640;55.838;37.184;2024-03-22T00:27:15;10.95;;;6.07;;
65533;SDS011;53640;55.838;37.184;2024-03-22T00:29:41;12.80;;;5.75;;
65533;SDS011;53640;55.838;37.184;2024-03-22T00:32:08;13.40;;;6.20;;
65533;SDS011;53640;55.838;37.184;2024-03-22T00:34:34;10.93;;;6.90;;
65533;SDS011;53640;55.838;37.184;2024-03-22T00:37:02;18.70;;;6.30;;
65533;SDS011;53640;55.838;37.184;2024-03-22T00:39:29;11.45;;;5.85;;
65533;SDS011;53640;55.838;37.184;2024-03-22T00:41:55;10.18;;;5.53;;
65533;SDS011;53640;55.838;37.184;2024-03-22T00:44:22;11.82;;;5.50;;
65533;SDS011;53640;55.838;37.184;2024-03-22T00:46:49;9.27;;;5.70;;
65533;SDS011;53640;55.838;37.184;2024-03-22T00:49:16;10.10;;;6.05;;
65533;SDS011;53640;55.838;37.184;2024-03-22T00:51:42;12.98;;;5.80;;
65533;SDS011;53640;55.838;37.184;2024-03-22T00:54:10;10.52;;;5.43;;
65533;SDS011;53640;55.838;37.184;2024-03-22T00:56:36;10.50;;;6.05;;
65533;SDS011;53640;55.838;37.184;2024-03-22T00:59:03;17.27;;;6.72;;
65533;SDS011;53640;55.838;37.184;2024-03-22T01:01:29;11.82;;;6.00;;
65533;SDS011;53640;55.838;37.184;2024-03-22T01:03:56;9.50;;;5.47;;
65533;SDS011;53640;55.838;37.184;2024-03-22T01:06:23;9.75;;;5.05;;
65533;SDS011;53640;55.838;37.184;2024-03-22T01:08:51;17.65;;;5.80;;
65533;SDS011;53640;55.838;37.184;2024-03-22T01:11:20;11.10;;;5.50;;
65533;SDS011;53640;55.838;37.184;2024-03-22T01:13:46;12.40;;;6.10;;
65533;SDS011;53640;55.838;37.184;2024-03-22T01:16:13;9.95;;;5.10;;
65533;SDS011;53640;55.838;37.184;2024-03-22T01:18:39;8.32;;;4.70;;
65533;SDS011;53640;55.838;37.184;2024-03-22T01:21:05;11.23;;;5.07;;
65533;SDS011;53640;55.838;37.184;2024-03-22T01:23:33;11.07;;;5.72;;
65533;SDS011;53640;55.838;37.184;2024-03-22T01:25:59;11.23;;;5.53;;
65533;SDS011;53640;55.838;37.184;2024-03-22T01:28:25;10.95;;;4.70;;
65533;SDS011;53640;55.838;37.184;2024-03-22T01:30:52;8.73;;;5.43;;
65533;SDS011;53640;55.838;37.184;2024-03-22T01:33:18;7.03;;;4.50;;
65533;SDS011;53640;55.838;37.184;2024-03-22T01:35:45;10.18;;;5.43;;
65533;SDS011;53640;55.838;37.184;2024-03-22T01:38:11;6.00;;;4.35;;
65533;SDS011;53640;55.838;37.184;2024-03-22T01:40:39;11.68;;;5.47;;
65533;SDS011;53640;55.838;37.184;2024-03-22T01:43:05;16.40;;;6.15;;
65533;SDS011;53640;55.838;37.184;2024-03-22T01:45:32;12.68;;;5.40;;
65533;SDS011;53640;55.838;37.184;2024-03-22T01:47:59;7.35;;;5.03;;
65533;SDS011;53640;55.838;37.184;2024-03-22T01:50:27;11.35;;;5.18;;
65533;SDS011;53640;55.838;37.184;2024-03-22T01:52:54;13.65;;;5.40;;
65533;SDS011;53640;55.838;37.184;2024-03-22T01:55:21;12.10;;;5.55;;
65533;SDS011;53640;55.838;37.184;2024-03-22T01:57:47;9.63;;;5.95;;
65533;SDS011;53640;55.838;37.184;2024-03-22T02:00:17;10.50;;;5.32;;
65533;SDS011;53640;55.838;37.184;2024-03-22T02:02:44;9.85;;;5.13;;
65533;SDS011;53640;55.838;37.184;2024-03-22T02:05:11;8.40;;;4.85;;
65533;SDS011;53640;55.838;37.184;2024-03-22T02:07:42;8.13;;;5.20;;
65533;SDS011;53640;55.838;37.184;2024-03-22T02:10:09;11.10;;;5.20;;
65533;SDS011;53640;55.838;37.184;2024-03-22T02:12:38;10.35;;;5.18;;
65533;SDS011;53640;55.838;37.184;2024-03-22T02:15:05;12.95;;;5.07;;
65533;SDS011;53640;55.838;37.184;2024-03-22T02:17:35;6.80;;;4.10;;
65533;SDS011;53640;55.838;37.184;2024-03-22T02:20:02;8.25;;;4.70;;
65533;SDS011;53640;55.838;37.184;2024-03-22T02:22:32;8.15;;;4.28;;
65533;SDS011;53640;55.838;37.184;2024-03-22T02:24:58;11.45;;;5.95;;
65533;SDS011;53640;55.838;37.184;2024-03-22T02:27:25;9.60;;;5.10;;
65533;SDS011;53640;55.838;37.184;2024-03-22T02:29:52;10.48;;;4.60;;
65533;SDS011;53640;55.838;37.184;2024-03-22T02:32:18;12.95;;;5.40;;
65533;SDS011;53640;55.838;37.184;2024-03-22T02:34:45;8.77;;;4.63;;
65533;SDS011;53640;55.838;37.184;2024-03-22T02:37:11;10.52;;;5.47;;
65533;SDS011;53640;55.838;37.184;2024-03-22T02:39:37;11.80;;;5.43;;
65533;SDS011;53640;55.838;37.184;2024-03-22T02:42:04;12.15;;;6.15;;
65533;SDS011;53640;55.838;37.184;2024-03-22T02:44:32;12.52;;;6.25;;
65533;SDS011;53640;55.838;37.184;2024-03-22T02:46:58;13.27;;;5.95;;
65533;SDS011;53640;55.838;37.184;2024-03-22T02:49:25;13.70;;;6.65;;
65533;SDS011;53640;55.838;37.184;2024-03-22T02:51:51;11.75;;;5.85;;
65533;SDS011;53640;55.838;37.184;2024-03-22T02:54:18;12.15;;;6.07;;
65533;SDS011;53640;55.838;37.184;2024-03-22T02:56:44;9.73;;;5.47;;
65533;SDS011;53640;55.838;37.184;2024-03-22T02:59:10;13.05;;;6.07;;
65533;SDS011;53640;55.838;37.184;2024-03-22T03:01:37;9.68;;;5.55;;
65533;SDS011;53640;55.838;37.184;2024-03-22T03:04:03;9.25;;;5.43;;
65533;SDS011;53640;55.838;37.184;2024-03-22T03:06:31;9.98;;;5.57;;
65533;SDS011;53640;55.838;37.184;2024-03-22T03:09:01;11.10;;;5.28;;
65533;SDS011;53640;55.838;37.184;2024-03-22T03:11:28;12.93;;;6.43;;
65533;SDS011;53640;55.838;37.184;2024-03-22T03:13:54;10.35;;;6.03;;
65533;SDS011;53640;55.838;37.184;2024-03-22T03:16:20;11.93;;;5.97;;
65533;SDS011;53640;55.838;37.184;2024-03-22T03:18:46;14.80;;;5.75;;
65533;SDS011;53640;55.838;37.184;2024-03-22T03:21:13;15.90;;;6.80;;
65533;SDS011;53640;55.838;37.184;2024-03-22T03:23:39;12.73;;;6.22;;
65533;SDS011;53640;55.838;37.184;2024-03-22T03:26:06;9.25;;;5.45;;
65533;SDS011;53640;55.838;37.184;2024-03-22T03:28:32;12.90;;;6.60;;
65533;SDS011;53640;55.838;37.184;2024-03-22T03:30:58;10.30;;;5.60;;
65533;SDS011;53640;55.838;37.184;2024-03-22T03:33:25;10.50;;;6.22;;
65533;SDS011;53640;55.838;37.184;2024-03-22T03:35:52;11.98;;;5.97;;
65533;SDS011;53640;55.838;37.184;2024-03-22T03:38:18;15.43;;;7.07;;
65533;SDS011;53640;55.838;37.184;2024-03-22T03:40:44;11.30;;;6.55;;
65533;SDS011;53640;55.838;37.184;2024-03-22T03:43:10;15.38;;;6.70;;
65533;SDS011;53640;55.838;37.184;2024-03-22T03:45:37;15.95;;;7.00;;
65533;SDS011;53640;55.838;37.184;2024-03-22T03:48:03;12.70;;;6.95;;
65533;SDS011;53640;55.838;37.184;2024-03-22T03:50:30;13.63;;;6.85;;
65533;SDS011;53640;55.838;37.184;2024-03-22T03:52:59;15.05;;;7.70;;
65533;SDS011;53640;55.838;37.184;2024-03-22T03:55:26;12.68;;;6.93;;
65533;SDS011;53640;55.838;37.184;2024-03-22T03:57:52;10.35;;;6.38;;
65533;SDS011;53640;55.838;37.184;2024-03-22T04:00:21;11.93;;;6.25;;
65533;SDS011;53640;55.838;37.184;2024-03-22T04:02:50;10.25;;;6.47;;
65533;SDS011;53640;55.838;37.184;2024-03-22T04:05:17;10.77;;;6.47;;
65533;SDS011;53640;55.838;37.184;2024-03-22T04:07:46;9.05;;;5.25;;
65533;SDS011;53640;55.838;37.184;2024-03-22T04:10:14;11.90;;;6.10;;
65533;SDS011;53640;55.838;37.184;2024-03-22T04:12:41;11.52;;;6.35;;
65533;SDS011;53640;55.838;37.184;2024-03-22T04:15:08;10.93;;;6.45;;
65533;SDS011;53640;55.838;37.184;2024-03-22T04:17:34;11.52;;;5.88;;
65533;SDS011;53640;55.838;37.184;2024-03-22T04:20:03;11.00;;;6.90;;
65533;SDS011;53640;55.838;37.184;2024-03-22T04:22:31;11.23;;;6.38;;
65533;SDS011;53640;55.838;37.184;2024-03-22T04:24:58;12.95;;;7.10;;
65533;SDS011;53640;55.838;37.184;2024-03-22T04:27:25;12.02;;;6.50;;
65533;SDS011;53640;55.838;37.184;2024-03-22T04:29:52;18.13;;;7.32;;
65533;SDS011;53640;55.838;37.184;2024-03-22T04:32:18;14.35;;;8.57;;
65533;SDS011;53640;55.838;37.184;2024-03-22T04:34:45;13.10;;;6.07;;
65533;SDS011;53640;55.838;37.184;2024-03-22T04:37:12;12.45;;;6.30;;
65533;SDS011;53640;55.838;37.184;2024-03-22T04:39:39;18.10;;;9.00;;
65533;SDS011;53640;55.838;37.184;2024-03-22T04:42:06;15.73;;;8.32;;
65533;SDS011;53640;55.838;37.184;2024-03-22T04:44:33;16.15;;;7.55;;
65533;SDS011;53640;55.838;37.184;2024-03-22T04:46:59;16.25;;;7.72;;
65533;SDS011;53640;55.838;37.184;2024-03-22T04:49:26;15.75;;;7.80;;
65533;SDS011;53640;55.838;37.184;2024-03-22T04:51:53;18.05;;;8.07;;
65533;SDS011;53640;55.838;37.184;2024-03-22T04:54:19;20.83;;;8.00;;
65533;SDS011;53640;55.838;37.184;2024-03-22T04:56:47;15.02;;;7.45;;
65533;SDS011;53640;55.838;37.184;2024-03-22T04:59:13;12.93;;;6.72;;
65533;SDS011;53640;55.838;37.184;2024-03-22T05:01:40;22.08;;;8.88;;
65533;SDS011;53640;55.838;37.184;2024-03-22T05:04:06;13.95;;;8.23;;
65533;SDS011;53640;55.838;37.184;2024-03-22T05:06:33;13.65;;;8.82;;
65533;SDS011;53640;55.838;37.184;2024-03-22T05:09:00;15.85;;;7.90;;
65533;SDS011;53640;55.838;37.184;2024-03-22T05:11:26;13.30;;;7.63;;
65533;SDS011;53640;55.838;37.184;2024-03-22T05:13:52;18.73;;;8.05;;
65533;SDS011;53640;55.838;37.184;2024-03-22T05:16:19;14.40;;;7.00;;
65533;SDS011;53640;55.838;37.184;2024-03-22T05:18:46;21.30;;;8.55;;
65533;SDS011;53640;55.838;37.184;2024-03-22T05:21:13;15.80;;;8.30;;
65533;SDS011;53640;55.838;37.184;2024-03-22T05:23:39;13.55;;;7.55;;
65533;SDS011;53640;55.838;37.184;2024-03-22T05:26:05;16.67;;;8.18;;
65533;SDS011;53640;55.838;37.184;2024-03-22T05:28:39;17.25;;;8.10;;
65533;SDS011;53640;55.838;37.184;2024-03-22T05:31:06;19.90;;;8.20;;
65533;SDS011;53640;55.838;37.184;2024-03-22T05:33:32;17.73;;;9.57;;
65533;SDS011;53640;55.838;37.184;2024-03-22T05:35:59;18.38;;;9.07;;
65533;SDS011;53640;55.838;37.184;2024-03-22T05:38:27;14.70;;;7.88;;
65533;SDS011;53640;55.838;37.184;2024-03-22T05:40:53;17.98;;;9.43;;
65533;SDS011;53640;55.838;37.184;2024-03-22T05:43:21;17.10;;;8.30;;
65533;SDS011;53640;55.838;37.184;2024-03-22T05:45:48;14.48;;;8.77;;
65533;SDS011;53640;55.838;37.184;2024-03-22T05:48:14;14.27;;;8.57;;
65533;SDS011;53640;55.838;37.184;2024-03-22T05:50:41;21.38;;;9.65;;
65533;SDS011;53640;55.838;37.184;2024-03-22T05:53:08;22.02;;;8.82;;
65533;SDS011;53640;55.838;37.184;2024-03-22T05:55:35;16.35;;;8.88;;
65533;SDS011;53640;55.838;37.184;2024-03-22T05:58:01;16.58;;;8.75;;
65533;SDS011;53640;55.838;37.184;2024-03-22T06:00:30;18.48;;;9.27;;
65533;SDS011;53640;55.838;37.184;2024-03-22T06:02:56;24.55;;;11.15;;
65533;SDS011;53640;55.838;37.184;2024-03-22T06:05:23;19.05;;;10.73;;
65533;SDS011;53640;55.838;37.184;2024-03-22T06:07:50;15.60;;;9.35;;
65533;SDS011;53640;55.838;37.184;2024-03-22T06:10:17;19.33;;;9.15;;
65533;SDS011;53640;55.838;37.184;2024-03-22T06:12:53;21.67;;;10.48;;
65533;SDS011;53640;55.838;37.184;2024-03-22T06:15:22;24.10;;;10.57;;
65533;SDS011;53640;55.838;37.184;2024-03-22T06:17:50;18.35;;;9.20;;
65533;SDS011;53640;55.838;37.184;2024-03-22T06:20:17;17.80;;;9.15;;
65533;SDS011;53640;55.838;37.184;2024-03-22T06:22:43;19.42;;;8.82;;
65533;SDS011;53640;55.838;37.184;2024-03-22T06:25:11;17.92;;;9.20;;
65533;SDS011;53640;55.838;37.184;2024-03-22T06:27:39;15.70;;;7.65;;
65533;SDS011;53640;55.838;37.184;2024-03-22T06:30:06;16.35;;;8.90;;
65533;SDS011;53640;55.838;37.184;2024-03-22T06:32:33;16.45;;;9.43;;
65533;SDS011;53640;55.838;37.184;2024-03-22T06:35:05;17.33;;;9.60;;
65533;SDS011;53640;55.838;37.184;2024-03-22T06:37:33;15.57;;;9.45;;
65533;SDS011;53640;55.838;37.184;2024-03-22T06:40:01;22.63;;;10.55;;
65533;SDS011;53640;55.838;37.184;2024-03-22T06:42:30;26.52;;;11.20;;
65533;SDS011;53640;55.838;37.184;2024-03-22T06:44:56;22.73;;;13.32;;
65533;SDS011;53640;55.838;37.184;2024-03-22T06:47:27;23.10;;;13.05;;
65533;SDS011;53640;55.838;37.184;2024-03-22T06:49:54;36.22;;;13.55;;
65533;SDS011;53640;55.838;37.184;2024-03-22T06:52:20;27.85;;;14.25;;
65533;SDS011;53640;55.838;37.184;2024-03-22T06:54:48;23.23;;;11.63;;
65533;SDS011;53640;55.838;37.184;2024-03-22T06:57:20;19.77;;;11.15;;
65533;SDS011;53640;55.838;37.184;2024-03-22T06:59:50;21.85;;;10.18;;
65533;SDS011;53640;55.838;37.184;2024-03-22T07:02:16;20.05;;;10.02;;
65533;SDS011;53640;55.838;37.184;2024-03-22T07:04:44;21.92;;;9.20;;
65533;SDS011;53640;55.838;37.184;2024-03-22T07:07:12;26.02;;;9.88;;
65533;SDS011;53640;55.838;37.184;2024-03-22T07:09:38;14.25;;;9.07;;
65533;SDS011;53640;55.838;37.184;2024-03-22T07:12:05;25.92;;;10.50;;
65533;SDS011;53640;55.838;37.184;2024-03-22T07:14:34;24.73;;;10.07;;
65533;SDS011;53640;55.838;37.184;2024-03-22T07:17:01;15.95;;;9.63;;
65533;SDS011;53640;55.838;37.184;2024-03-22T07:19:29;16.25;;;8.63;;
65533;SDS011;53640;55.838;37.184;2024-03-22T07:22:00;20.17;;;10.15;;
65533;SDS011;53640;55.838;37.184;2024-03-22T07:24:33;14.40;;;8.25;;
65533;SDS011;53640;55.838;37.184;2024-03-22T07:26:59;19.02;;;9.15;;
65533;SDS011;53640;55.838;37.184;2024-03-22T07:29:28;16.73;;;9.40;;
65533;SDS011;53640;55.838;37.184;2024-03-22T07:31:54;18.40;;;9.32;;
65533;SDS011;53640;55.838;37.184;2024-03-22T07:34:22;19.08;;;9.40;;
65533;SDS011;53640;55.838;37.184;2024-03-22T07:36:51;19.10;;;8.45;;
65533;SDS011;53640;55.838;37.184;2024-03-22T07:39:18;16.85;;;8.15;;
65533;SDS011;53640;55.838;37.184;2024-03-22T07:41:46;12.25;;;6.78;;
65533;SDS011;53640;55.838;37.184;2024-03-22T07:44:12;17.58;;;8.00;;
65533;SDS011;53640;55.838;37.184;2024-03-22T07:46:38;16.70;;;7.22;;
65533;SDS011;53640;55.838;37.184;2024-03-22T07:49:06;15.85;;;7.93;;
65533;SDS011;53640;55.838;37.184;2024-03-22T07:51:32;19.48;;;8.23;;
65533;SDS011;53640;55.838;37.184;2024-03-22T07:53:59;15.10;;;7.78;;
65533;SDS011;53640;55.838;37.184;2024-03-22T07:56:26;18.52;;;7.70;;
65533;SDS011;53640;55.838;37.184;2024-03-22T07:58:52;11.85;;;6.82;;
65533;SDS011;53640;55.838;37.184;2024-03-22T08:01:19;14.30;;;6.30;;
65533;SDS011;53640;55.838;37.184;2024-03-22T08:03:47;15.63;;;7.43;;
65533;SDS011;53640;55.838;37.184;2024-03-22T08:06:13;11.35;;;6.40;;
65533;SDS011;53640;55.838;37.184;2024-03-22T08:08:40;14.35;;;7.15;;
65533;SDS011;53640;55.838;37.184;2024-03-22T08:11:07;13.63;;;7.75;;
65533;SDS011;53640;55.838;37.184;2024-03-22T08:13:35;14.35;;;7.57;;
65533;SDS011;53640;55.838;37.184;2024-03-22T08:16:05;14.88;;;7.60;;
65533;SDS011;53640;55.838;37.184;2024-03-22T08:18:32;12.48;;;6.68;;
65533;SDS011;53640;55.838;37.184;2024-03-22T08:20:59;13.32;;;6.35;;
65533;SDS011;53640;55.838;37.184;2024-03-22T08:23:26;13.02;;;7.13;;
65533;SDS011;53640;55.838;37.184;2024-03-22T08:25:54;12.10;;;6.03;;
65533;SDS011;53640;55.838;37.184;2024-03-22T08:28:23;11.48;;;6.80;;
65533;SDS011;53640;55.838;37.184;2024-03-22T08:30:49;10.95;;;5.68;;
65533;SDS011;53640;55.838;37.184;2024-03-22T08:33:31;15.20;;;6.40;;
65533;SDS011;53640;55.838;37.184;2024-03-22T08:36:04;12.13;;;5.32;;
65533;SDS011;53640;55.838;37.184;2024-03-22T08:38:31;12.80;;;5.93;;
65533;SDS011;53640;55.838;37.184;2024-03-22T08:40:57;11.40;;;5.63;;
65533;SDS011;53640;55.838;37.184;2024-03-22T08:43:24;10.80;;;6.25;;
65533;SDS011;53640;55.838;37.184;2024-03-22T08:45:51;9.93;;;5.57;;
65533;SDS011;53640;55.838;37.184;2024-03-22T08:48:18;11.73;;;5.82;;
65533;SDS011;53640;55.838;37.184;2024-03-22T08:50:44;10.65;;;6.20;;
65533;SDS011;53640;55.838;37.184;2024-03-22T08:53:11;14.30;;;6.28;;
65533;SDS011;53640;55.838;37.184;2024-03-22T08:55:37;13.48;;;5.53;;
65533;SDS011;53640;55.838;37.184;2024-03-22T08:58:04;10.60;;;5.47;;
65533;SDS011;53640;55.838;37.184;2024-03-22T09:00:31;11.95;;;5.75;;
65533;SDS011;53640;55.838;37.184;2024-03-22T09:03:03;9.38;;;5.22;;
65533;SDS011;53640;55.838;37.184;2024-03-22T09:05:30;9.35;;;5.18;;
65533;SDS011;53640;55.838;37.184;2024-03-22T09:07:56;12.57;;;5.22;;
65533;SDS011;53640;55.838;37.184;2024-03-22T09:10:24;12.95;;;5.75;;
65533;SDS011;53640;55.838;37.184;2024-03-22T09:12:51;10.30;;;5.07;;
65533;SDS011;53640;55.838;37.184;2024-03-22T09:15:19;9.45;;;4.95;;
65533;SDS011;53640;55.838;37.184;2024-03-22T09:17:47;11.80;;;4.90;;
65533;SDS011;53640;55.838;37.184;2024-03-22T09:20:14;11.35;;;4.57;;
65533;SDS011;53640;55.838;37.184;2024-03-22T09:22:40;11.10;;;5.22;;
65533;SDS011;53640;55.838;37.184;2024-03-22T09:25:07;10.70;;;5.32;;
65533;SDS011;53640;55.838;37.184;2024-03-22T09:27:34;11.02;;;5.20;;
65533;SDS011;53640;55.838;37.184;2024-03-22T09:30:01;6.22;;;4.00;;
65533;SDS011;53640;55.838;37.184;2024-03-22T09:32:31;9.73;;;4.20;;
65533;SDS011;53640;55.838;37.184;2024-03-22T09:35:00;5.53;;;4.00;;
65533;SDS011;53640;55.838;37.184;2024-03-22T09:37:27;7.97;;;4.00;;
65533;SDS011;53640;55.838;37.184;2024-03-22T09:39:53;10.95;;;4.60;;
65533;SDS011;53640;55.838;37.184;2024-03-22T09:42:20;11.32;;;4.78;;
65533;SDS011;53640;55.838;37.184;2024-03-22T09:44:49;10.25;;;4.53;;
65533;SDS011;53640;55.838;37.184;2024-03-22T09:47:17;5.93;;;3.97;;
65533;SDS011;53640;55.838;37.184;2024-03-22T09:49:47;6.10;;;3.55;;
65533;SDS011;53640;55.838;37.184;2024-03-22T09:52:19;8.10;;;3.80;;
65533;SDS011;53640;55.838;37.184;2024-03-22T09:54:47;8.73;;;4.47;;
65533;SDS011;53640;55.838;37.184;2024-03-22T09:57:18;9.70;;;4.07;;
65533;SDS011;53640;55.838;37.184;2024-03-22T09:59:46;11.73;;;4.63;;
65533;SDS011;53640;55.838;37.184;2024-03-22T10:02:13;7.00;;;4.25;;
65533;SDS011;53640;55.838;37.184;2024-03-22T10:04:40;7.95;;;4.70;;
65533;SDS011;53640;55.838;37.184;2024-03-22T10:07:07;8.98;;;4.07;;
65533;SDS011;53640;55.838;37.184;2024-03-22T10:09:36;6.53;;;4.40;;
65533;SDS011;53640;55.838;37.184;2024-03-22T10:12:03;5.40;;;3.83;;
65533;SDS011;53640;55.838;37.184;2024-03-22T10:14:30;7.20;;;3.88;;
65533;SDS011;53640;55.838;37.184;2024-03-22T10:16:57;8.05;;;3.88;;
65533;SDS011;53640;55.838;37.184;2024-03-22T10:19:24;7.93;;;4.03;;
65533;SDS011;53640;55.838;37.184;2024-03-22T10:22:00;6.35;;;3.88;;
65533;SDS011;53640;55.838;37.184;2024-03-22T10:24:27;15.25;;;4.40;;
65533;SDS011;53640;55.838;37.184;2024-03-22T10:26:54;7.80;;;3.97;;
65533;SDS011;53640;55.838;37.184;2024-03-22T10:29:21;7.68;;;4.35;;
65533;SDS011;53640;55.838;37.184;2024-03-22T10:31:49;8.45;;;4.28;;
65533;SDS011;53640;55.838;37.184;2024-03-22T10:34:18;8.82;;;3.97;;
65533;SDS011;53640;55.838;37.184;2024-03-22T10:36:49;10.63;;;4.45;;
65533;SDS011;53640;55.838;37.184;2024-03-22T10:39:19;13.30;;;4.47;;
65533;SDS011;53640;55.838;37.184;2024-03-22T10:41:47;5.53;;;4.07;;
65533;SDS011;53640;55.838;37.184;2024-03-22T10:44:17;6.40;;;4.13;;
65533;SDS011;53640;55.838;37.184;2024-03-22T10:46:46;6.93;;;3.53;;
65533;SDS011;53640;55.838;37.184;2024-03-22T10:49:18;9.38;;;4.25;;
65533;SDS011;53640;55.838;37.184;2024-03-22T10:51:52;6.10;;;3.85;;
65533;SDS011;53640;55.838;37.184;2024-03-22T10:54:25;6.60;;;3.70;;
65533;SDS011;53640;55.838;37.184;2024-03-22T10:56:55;7.35;;;3.60;;
65533;SDS011;53640;55.838;37.184;2024-03-22T10:59:22;7.65;;;3.85;;
65533;SDS011;53640;55.838;37.184;2024-03-22T11:01:49;7.13;;;3.70;;
65533;SDS011;53640;55.838;37.184;2024-03-22T11:04:22;5.55;;;3.90;;
65533;SDS011;53640;55.838;37.184;2024-03-22T11:06:50;8.70;;;3.88;;
65533;SDS011;53640;55.838;37.184;2024-03-22T11:09:23;5.35;;;3.47;;
65533;SDS011;53640;55.838;37.184;2024-03-22T11:11:53;3.80;;;2.78;;
65533;SDS011;53640;55.838;37.184;2024-03-22T11:14:21;5.97;;;3.08;;
65533;SDS011;53640;55.838;37.184;2024-03-22T11:16:47;8.18;;;3.65;;
65533;SDS011;53640;55.838;37.184;2024-03-22T11:19:14;5.43;;;3.30;;
65533;SDS011;53640;55.838;37.184;2024-03-22T11:21:41;5.95;;;3.40;;
65533;SDS011;53640;55.838;37.184;2024-03-22T11:24:09;5.03;;;3.08;;
65533;SDS011;53640;55.838;37.184;2024-03-22T11:26:37;5.63;;;3.30;;
65533;SDS011;53640;55.838;37.184;2024-03-22T11:29:06;5.43;;;3.30;;
65533;SDS011;53640;55.838;37.184;2024-03-22T11:31:35;8.88;;;4.10;;
65533;SDS011;53640;55.838;37.184;2024-03-22T11:34:03;7.20;;;3.25;;
65533;SDS011;53640;55.838;37.184;2024-03-22T11:36:30;5.10;;;3.35;;
65533;SDS011;53640;55.838;37.184;2024-03-22T11:39:00;4.45;;;3.60;;
65533;SDS011;53640;55.838;37.184;2024-03-22T11:41:27;8.60;;;3.40;;
65533;SDS011;53640;55.838;37.184;2024-03-22T11:44:00;4.32;;;2.80;;
65533;SDS011;53640;55.838;37.184;2024-03-22T11:46:27;5.20;;;3.50;;
65533;SDS011;53640;55.838;37.184;2024-03-22T11:48:54;6.50;;;3.08;;
65533;SDS011;53640;55.838;37.184;2024-03-22T11:51:23;10.30;;;3.45;;
65533;SDS011;53640;55.838;37.184;2024-03-22T11:53:54;4.13;;;2.90;;
65533;SDS011;53640;55.838;37.184;2024-03-22T11:56:24;7.38;;;3.45;;
65533;SDS011;53640;55.838;37.184;2024-03-22T11:59:00;3.03;;;2.72;;
65533;SDS011;53640;55.838;37.184;2024-03-22T12:01:29;4.10;;;2.92;;
65533;SDS011;53640;55.838;37.184;2024-03-22T12:03:56;6.63;;;3.50;;
65533;SDS011;53640;55.838;37.184;2024-03-22T12:06:22;5.32;;;3.83;;
65533;SDS011;53640;55.838;37.184;2024-03-22T12:08:49;3.67;;;3.20;;
65533;SDS011;53640;55.838;37.184;2024-03-22T12:11:15;4.57;;;3.25;;
65533;SDS011;53640;55.838;37.184;2024-03-22T12:13:42;6.18;;;3.88;;
65533;SDS011;53640;55.838;37.184;2024-03-22T12:16:08;5.20;;;3.35;;
65533;SDS011;53640;55.838;37.184;2024-03-22T12:18:35;5.13;;;3.90;;
65533;SDS011;53640;55.838;37.184;2024-03-22T12:21:04;7.95;;;3.67;;
65533;SDS011;53640;55.838;37.184;2024-03-22T12:23:30;4.07;;;3.47;;
65533;SDS011;53640;55.838;37.184;2024-03-22T12:25:58;7.60;;;3.97;;
65533;SDS011;53640;55.838;37.184;2024-03-22T12:28:24;5.25;;;3.83;;
65533;SDS011;53640;55.838;37.184;2024-03-22T12:30:50;4.85;;;4.00;;
65533;SDS011;53640;55.838;37.184;2024-03-22T12:33:17;6.28;;;4.13;;
65533;SDS011;53640;55.838;37.184;2024-03-22T12:35:43;5.60;;;3.72;;
65533;SDS011;53640;55.838;37.184;2024-03-22T12:38:10;5.60;;;3.60;;
65533;SDS011;53640;55.838;37.184;2024-03-22T12:40:39;5.82;;;3.50;;
65533;SDS011;53640;55.838;37.184;2024-03-22T12:43:07;7.78;;;3.97;;
65533;SDS011;53640;55.838;37.184;2024-03-22T12:45:35;5.18;;;3.20;;
65533;SDS011;53640;55.838;37.184;2024-03-22T12:48:02;4.57;;;3.20;;
65533;SDS011;53640;55.838;37.184;2024-03-22T12:50:28;3.80;;;3.13;;
65533;SDS011;53640;55.838;37.184;2024-03-22T12:52:56;5.25;;;3.20;;
65533;SDS011;53640;55.838;37.184;2024-03-22T12:55:23;5.72;;;3.10;;
65533;SDS011;53640;55.838;37.184;2024-03-22T12:57:49;6.97;;;3.15;;
65533;SDS011;53640;55.838;37.184;2024-03-22T13:00:16;4.95;;;2.50;;
65533;SDS011;53640;55.838;37.184;2024-03-22T13:02:45;4.95;;;3.40;;
65533;SDS011;53640;55.838;37.184;2024-03-22T13:05:13;4.93;;;3.03;;
65533;SDS011;53640;55.838;37.184;2024-03-22T13:07:41;6.88;;;3.00;;
65533;SDS011;53640;55.838;37.184;2024-03-22T13:10:09;3.70;;;2.70;;
65533;SDS011;53640;55.838;37.184;2024-03-22T13:12:36;3.78;;;2.55;;
65533;SDS011;53640;55.838;37.184;2024-03-22T13:15:03;4.03;;;2.80;;
65533;SDS011;53640;55.838;37.184;2024-03-22T13:17:32;5.15;;;3.00;;
65533;SDS011;53640;55.838;37.184;2024-03-22T13:19:59;4.65;;;2.88;;
65533;SDS011;53640;55.838;37.184;2024-03-22T13:22:26;4.40;;;2.92;;
65533;SDS011;53640;55.838;37.184;2024-03-22T13:24:53;9.25;;;4.05;;
65533;SDS011;53640;55.838;37.184;2024-03-22T13:27:20;7.25;;;4.43;;
65533;SDS011;53640;55.838;37.184;2024-03-22T13:29:49;7.85;;;4.68;;
65533;SDS011;53640;55.838;37.184;2024-03-22T13:32:16;8.63;;;4.50;;
65533;SDS011;53640;55.838;37.184;2024-03-22T13:34:43;8.13;;;4.30;;
65533;SDS011;53640;55.838;37.184;2024-03-22T13:37:09;11.63;;;4.75;;
65533;SDS011;53640;55.838;37.184;2024-03-22T13:39:36;7.13;;;4.82;;
65533;SDS011;53640;55.838;37.184;2024-03-22T13:42:02;8.68;;;4.57;;
65533;SDS011;53640;55.838;37.184;2024-03-22T13:44:32;8.18;;;4.95;;
65533;SDS011;53640;55.838;37.184;2024-03-22T13:46:59;8.93;;;5.13;;
65533;SDS011;53640;55.838;37.184;2024-03-22T13:49:25;8.02;;;4.78;;
65533;SDS011;53640;55.838;37.184;2024-03-22T13:51:52;7.25;;;4.55;;
65533;SDS011;53640;55.838;37.184;2024-03-22T13:54:18;8.70;;;5.25;;
65533;SDS011;53640;55.838;37.184;2024-03-22T13:56:45;5.93;;;4.60;;
65533;SDS011;53640;55.838;37.184;2024-03-22T13:59:11;11.27;;;5.10;;
65533;SDS011;53640;55.838;37.184;2024-03-22T14:01:40;10.13;;;5.07;;
65533;SDS011;53640;55.838;37.184;2024-03-22T14:04:09;7.55;;;4.32;;
65533;SDS011;53640;55.838;37.184;2024-03-22T14:06:37;7.60;;;4.90;;
65533;SDS011;53640;55.838;37.184;2024-03-22T14:09:04;8.73;;;4.18;;
65533;SDS011;53640;55.838;37.184;2024-03-22T14:11:32;9.18;;;4.28;;
65533;SDS011;53640;55.838;37.184;2024-03-22T14:13:58;8.20;;;4.45;;
65533;SDS011;53640;55.838;37.184;2024-03-22T14:16:25;8.02;;;4.20;;
65533;SDS011;53640;55.838;37.184;2024-03-22T14:18:52;7.38;;;4.85;;
65533;SDS011;53640;55.838;37.184;2024-03-22T14:21:18;7.78;;;4.47;;
65533;SDS011;53640;55.838;37.184;2024-03-22T14:23:46;7.60;;;4.47;;
65533;SDS011;53640;55.838;37.184;2024-03-22T14:26:14;9.27;;;4.70;;